createdAt,value
2022-09-15T00:02:38.120Z,85.59
2022-09-15T00:07:39.975Z,85.63
2022-09-15T00:12:41.891Z,85.69
2022-09-15T00:17:49.795Z,85.86
2022-09-15T00:22:51.535Z,85.88
2022-09-15T00:27:53.378Z,85.93
2022-09-15T00:32:55.109Z,85.97
2022-09-15T00:37:56.900Z,85.89
2022-09-15T00:42:58.625Z,85.92
2022-09-15T00:48:00.629Z,85.82
2022-09-15T00:53:06.176Z,85.79
2022-09-15T00:58:13.177Z,85.73
2022-09-15T01:03:25.591Z,85.69
2022-09-15T01:08:33.293Z,85.89
2022-09-15T01:13:35.077Z,85.80
2022-09-15T01:19:06.606Z,85.94
2022-09-15T01:24:32.599Z,86.16
2022-09-15T01:30:22.943Z,86.54
2022-09-15T01:35:39.505Z,86.89
2022-09-15T01:41:15.833Z,87.28
2022-09-15T01:46:21.552Z,87.62
2022-09-15T01:51:25.767Z,87.73
2022-09-15T01:56:27.575Z,87.83
2022-09-15T02:01:38.785Z,87.90
2022-09-15T02:07:07.140Z,88.04
2022-09-15T02:12:24.140Z,88.18
2022-09-15T02:17:29.504Z,88.14
2022-09-15T02:22:37.533Z,88.10
2022-09-15T02:27:52.808Z,88.09
2022-09-15T02:32:58.172Z,88.12
2022-09-15T02:38:00.874Z,88.18
2022-09-15T02:43:05.493Z,88.21
2022-09-15T02:48:09.621Z,88.21
2022-09-15T02:53:19.609Z,88.24
2022-09-15T02:58:30.324Z,88.15
2022-09-15T03:03:33.425Z,88.21
2022-09-15T03:08:35.314Z,88.25
2022-09-15T03:13:39.338Z,88.44
2022-09-15T03:18:42.201Z,88.53
2022-09-15T03:23:44.936Z,88.50
2022-09-15T03:28:46.772Z,88.59
2022-09-15T03:33:48.974Z,88.73
2022-09-15T03:38:50.922Z,88.86
2022-09-15T03:43:52.748Z,89.03
2022-09-15T03:48:54.506Z,89.15
2022-09-15T03:53:56.587Z,89.28
2022-09-15T03:58:59.472Z,89.34
2022-09-15T04:04:01.970Z,89.32
2022-09-15T04:09:04.413Z,89.26
2022-09-15T04:14:06.671Z,89.18
2022-09-15T04:19:25.599Z,89.09
2022-09-15T04:24:35.108Z,89.01
2022-09-15T04:29:43.667Z,88.95
2022-09-15T04:34:45.910Z,88.92
2022-09-15T04:39:49.100Z,88.94
2022-09-15T04:44:51.256Z,88.97
2022-09-15T04:49:53.006Z,88.96
2022-09-15T04:54:54.849Z,88.94
2022-09-15T04:59:56.718Z,88.88
2022-09-15T05:04:58.833Z,88.79
2022-09-15T05:10:07.685Z,88.70
2022-09-15T05:15:10.127Z,88.48
2022-09-15T05:20:12.298Z,88.23
2022-09-15T05:25:14.227Z,87.99
2022-09-15T05:30:36.717Z,87.80
2022-09-15T05:35:37.908Z,87.59
2022-09-15T05:40:39.575Z,87.41
2022-09-15T05:45:42.799Z,87.40
2022-09-15T05:50:49.727Z,87.77
2022-09-15T05:56:03.150Z,88.09
2022-09-15T06:01:08.042Z,88.56
2022-09-15T06:06:10.394Z,88.76
2022-09-15T06:11:17.969Z,88.92
2022-09-15T06:16:22.649Z,89.02
2022-09-15T06:21:28.992Z,88.98
2022-09-15T06:26:30.981Z,88.95
2022-09-15T06:31:42.833Z,89.10
2022-09-15T06:36:45.227Z,89.25
2022-09-15T06:42:01.670Z,89.30
2022-09-15T06:47:05.385Z,89.47
2022-09-15T06:52:22.596Z,89.62
2022-09-15T06:57:38.181Z,89.48
2022-09-15T07:02:40.268Z,89.35
2022-09-15T07:07:42.871Z,89.35
2022-09-15T07:12:46.293Z,89.20
2022-09-15T07:17:47.967Z,89.04
2022-09-15T07:22:49.738Z,89.05
2022-09-15T07:27:51.717Z,88.71
2022-09-15T07:32:54.084Z,88.41
2022-09-15T07:37:55.804Z,88.01
2022-09-15T07:42:57.606Z,87.07
2022-09-15T07:47:59.592Z,86.36
2022-09-15T07:53:01.411Z,86.16
2022-09-15T07:58:03.903Z,86.27
2022-09-15T08:03:05.670Z,86.15
2022-09-15T08:08:08.138Z,84.32
2022-09-15T08:13:16.580Z,82.23
2022-09-15T08:18:29.437Z,82.82
2022-09-15T08:23:31.130Z,83.02
2022-09-15T08:28:33.307Z,83.74
2022-09-15T08:33:36.105Z,84.13
2022-09-15T08:38:42.943Z,84.21
2022-09-15T08:44:08.449Z,84.42
2022-09-15T08:49:40.816Z,84.95
2022-09-15T08:54:45.004Z,84.96
2022-09-15T08:59:47.878Z,85.43
2022-09-15T09:05:11.646Z,85.67
2022-09-15T09:10:31.809Z,84.74
2022-09-15T09:15:51.600Z,84.25
2022-09-15T09:21:02.446Z,81.98
2022-09-15T09:26:07.486Z,80.63
2022-09-15T09:31:20.152Z,80.11
2022-09-15T09:36:22.051Z,79.30
2022-09-15T09:41:26.958Z,79.84
2022-09-15T09:46:29.037Z,80.96
2022-09-15T09:51:52.313Z,82.27
2022-09-15T09:56:56.077Z,83.12
2022-09-15T10:02:29.084Z,83.56
2022-09-15T10:07:34.245Z,83.33
2022-09-15T10:12:41.408Z,82.76
2022-09-15T10:17:46.492Z,82.01
2022-09-15T10:22:48.746Z,81.15
2022-09-15T10:28:15.067Z,80.71
2022-09-15T10:33:25.721Z,78.77
2022-09-15T10:38:54.327Z,79.37
2022-09-15T10:44:15.145Z,81.87
2022-09-15T10:49:56.764Z,83.73
2022-09-15T10:55:52.152Z,84.96
2022-09-15T11:01:22.631Z,85.75
2022-09-15T11:07:03.088Z,86.32
2022-09-15T11:12:34.258Z,86.14
2022-09-15T11:18:20.373Z,86.14
2022-09-15T11:23:40.340Z,86.19
2022-09-15T11:28:50.499Z,86.28
2022-09-15T11:34:05.953Z,86.30
2022-09-15T11:39:22.523Z,86.26
2022-09-15T11:44:32.909Z,86.05
2022-09-15T11:49:45.494Z,85.66
2022-09-15T11:54:54.645Z,85.15
2022-09-15T12:00:11.263Z,85.04
2022-09-15T12:05:22.284Z,84.84
2022-09-15T12:10:30.453Z,84.21
2022-09-15T12:15:32.489Z,83.71
2022-09-15T12:20:43.634Z,82.29
2022-09-15T12:26:19.048Z,81.98
2022-09-15T12:31:23.651Z,80.81
2022-09-15T12:36:48.429Z,79.75
2022-09-15T12:41:54.782Z,79.42
2022-09-15T12:46:59.245Z,80.16
2022-09-15T12:52:05.472Z,79.69
2022-09-15T12:57:24.555Z,78.72
2022-09-15T13:02:50.650Z,79.50
2022-09-15T13:07:56.294Z,79.41
2022-09-15T13:13:22.607Z,78.33
2022-09-15T13:18:26.044Z,77.73
2022-09-15T13:23:33.963Z,77.94
2022-09-15T13:28:37.854Z,78.39
2022-09-15T13:40:09.732Z,79.22
2022-09-15T13:45:37.817Z,79.29
2022-09-15T13:51:00.991Z,79.17
2022-09-15T13:56:09.574Z,79.61
2022-09-15T14:01:12.533Z,80.01
2022-09-15T14:06:31.417Z,80.16
2022-09-15T14:11:36.864Z,79.74
2022-09-15T14:16:39.387Z,79.77
2022-09-15T14:21:52.822Z,80.10
2022-09-15T14:27:07.996Z,81.17
2022-09-15T14:32:31.686Z,80.96
2022-09-15T14:37:55.374Z,81.79
2022-09-15T14:42:58.371Z,82.31
2022-09-15T14:48:02.308Z,82.67
2022-09-15T14:53:13.619Z,82.37
2022-09-15T14:58:21.006Z,83.03
2022-09-15T15:03:59.746Z,83.13
2022-09-15T15:09:24.907Z,82.77
2022-09-15T15:14:27.749Z,82.41
2022-09-15T15:19:41.389Z,82.08
2022-09-15T15:24:46.242Z,81.61
2022-09-15T15:29:48.127Z,81.78
2022-09-15T15:34:53.558Z,81.57
2022-09-15T15:40:06.695Z,81.06
2022-09-15T15:45:09.453Z,81.17
2022-09-15T15:50:20.876Z,81.43
2022-09-15T15:55:47.689Z,81.70
2022-09-15T16:00:52.002Z,81.84
2022-09-15T16:05:57.706Z,82.19
2022-09-15T16:11:01.657Z,82.44
2022-09-15T16:16:14.022Z,82.69
2022-09-15T16:21:19.195Z,82.98
2022-09-15T16:26:25.158Z,83.37
2022-09-15T16:31:27.398Z,83.65
2022-09-15T16:36:36.370Z,83.87
2022-09-15T16:41:39.453Z,83.59
2022-09-15T16:46:41.374Z,83.33
2022-09-15T16:52:03.590Z,83.11
2022-09-15T16:57:12.275Z,83.05
2022-09-15T17:02:14.344Z,83.01
2022-09-15T17:07:16.154Z,83.01
2022-09-15T17:12:18.233Z,83.02
2022-09-15T17:17:24.736Z,82.84
2022-09-15T17:22:26.440Z,82.42
2022-09-15T17:27:28.269Z,82.04
2022-09-15T17:32:34.706Z,81.84
2022-09-15T17:37:37.202Z,82.43
2022-09-15T17:42:38.984Z,83.32
2022-09-15T17:47:40.716Z,84.11
2022-09-15T17:52:42.633Z,84.57
2022-09-15T17:57:44.988Z,84.76
2022-09-15T18:02:57.939Z,84.96
2022-09-15T18:08:03.372Z,85.31
2022-09-15T18:13:06.002Z,85.55
2022-09-15T18:18:14.148Z,85.75
2022-09-15T18:23:19.915Z,85.83
2022-09-15T18:28:21.822Z,85.84
2022-09-15T18:33:25.599Z,85.93
2022-09-15T18:38:27.826Z,85.97
2022-09-15T18:43:29.652Z,85.99
2022-09-15T18:48:31.788Z,86.02
2022-09-15T18:53:38.150Z,86.01
2022-09-15T18:58:40.413Z,85.99
2022-09-15T19:03:45.211Z,85.79
2022-09-15T19:08:47.286Z,85.78
2022-09-15T19:13:49.346Z,85.83
2022-09-15T19:18:51.187Z,85.61
2022-09-15T19:23:57.997Z,85.78
2022-09-15T19:28:59.903Z,85.93
2022-09-15T19:34:04.267Z,86.07
2022-09-15T19:39:06.620Z,86.37
2022-09-15T19:44:10.671Z,86.48
2022-09-15T19:49:12.980Z,86.55
2022-09-15T19:54:14.732Z,86.67
2022-09-15T19:59:16.467Z,86.55
2022-09-15T20:04:18.384Z,86.55
2022-09-15T20:09:20.288Z,86.51
2022-09-15T20:14:22.110Z,86.59
2022-09-15T20:19:24.418Z,86.61
2022-09-15T20:24:26.355Z,86.58
2022-09-15T20:29:30.533Z,86.59
2022-09-15T20:34:32.301Z,86.74
2022-09-15T20:39:38.281Z,86.94
2022-09-15T20:44:55.586Z,86.65
2022-09-15T20:50:08.413Z,86.85
2022-09-15T20:55:10.089Z,87.28
2022-09-15T21:00:12.588Z,87.48
2022-09-15T21:05:14.500Z,87.54
2022-09-15T21:10:16.288Z,87.62
2022-09-15T21:15:18.146Z,87.43
2022-09-15T21:20:40.546Z,87.73
2022-09-15T21:26:10.871Z,88.23
2022-09-15T21:31:16.155Z,88.62
2022-09-15T21:36:31.404Z,88.87
2022-09-15T21:41:33.046Z,89.04
2022-09-15T21:46:34.755Z,89.01
2022-09-15T21:51:52.127Z,89.09
2022-09-15T21:56:53.971Z,89.20
2022-09-15T22:01:56.088Z,89.15
2022-09-15T22:06:57.969Z,89.08
2022-09-15T22:11:59.798Z,88.95
2022-09-15T22:17:01.521Z,88.90
2022-09-15T22:22:03.441Z,88.96
2022-09-15T22:27:05.193Z,89.07
2022-09-15T22:32:07.823Z,89.17
2022-09-15T22:37:09.556Z,89.25
2022-09-15T22:42:11.290Z,89.28
2022-09-15T22:47:13.018Z,89.30
2022-09-15T22:52:14.739Z,89.26
2022-09-15T22:57:16.490Z,89.24
2022-09-15T23:02:18.336Z,89.21
2022-09-15T23:07:20.121Z,89.18
2022-09-15T23:12:22.022Z,89.04
2022-09-15T23:17:24.200Z,88.91
2022-09-15T23:22:26.392Z,88.76
2022-09-15T23:27:48.568Z,88.66
2022-09-15T23:32:50.420Z,88.59
2022-09-15T23:37:52.458Z,88.51
2022-09-15T23:42:54.213Z,88.44
2022-09-15T23:47:55.906Z,88.30
2022-09-15T23:52:58.114Z,88.26
2022-09-15T23:57:59.970Z,88.28
